createdAt,value
2022-10-12T00:00:07.902Z,38.47
2022-10-12T00:02:34.732Z,37.85
2022-10-12T00:05:01.756Z,42.55
2022-10-12T00:07:28.683Z,40.15
2022-10-12T00:09:58.056Z,37.90
2022-10-12T00:12:25.189Z,43.45
2022-10-12T00:14:52.198Z,39.45
2022-10-12T00:17:19.342Z,37.53
2022-10-12T00:19:46.338Z,34.83
2022-10-12T00:22:13.245Z,35.50
2022-10-12T00:24:42.838Z,43.38
2022-10-12T00:27:10.140Z,46.95
2022-10-12T00:29:37.142Z,49.08
2022-10-12T00:32:04.157Z,47.28
2022-10-12T00:34:31.170Z,47.60
2022-10-12T00:36:58.144Z,41.55
2022-10-12T00:39:24.982Z,50.72
2022-10-12T00:41:51.932Z,45.80
2022-10-12T00:44:39.012Z,52.13
2022-10-12T00:47:39.696Z,48.00
2022-10-12T00:52:55.952Z,47.80
2022-10-12T00:55:25.966Z,37.58
2022-10-12T00:57:55.072Z,46.03
2022-10-12T01:00:23.409Z,34.47
2022-10-12T01:02:53.481Z,36.85
2022-10-12T01:05:21.437Z,41.25
2022-10-12T01:07:48.367Z,38.25
2022-10-12T01:10:15.768Z,36.85
2022-10-12T01:12:44.608Z,39.53
2022-10-12T01:15:13.973Z,33.40
2022-10-12T01:17:49.917Z,35.72
2022-10-12T01:20:41.914Z,38.13
2022-10-12T01:23:17.975Z,44.60
2022-10-12T01:26:03.502Z,41.78
2022-10-12T01:28:30.569Z,44.08
2022-10-12T01:31:07.911Z,47.92
2022-10-12T01:33:40.184Z,47.60
2022-10-12T01:36:26.105Z,49.33
2022-10-12T01:38:58.938Z,48.92
2022-10-12T01:41:43.228Z,41.35
2022-10-12T01:44:10.347Z,43.67
2022-10-12T01:46:40.484Z,43.35
2022-10-12T01:49:07.639Z,43.47
2022-10-12T01:51:53.602Z,42.47
2022-10-12T01:54:58.013Z,40.70
2022-10-12T01:57:33.994Z,40.30
2022-10-12T02:00:06.276Z,36.05
2022-10-12T02:03:18.209Z,34.10
2022-10-12T02:05:52.373Z,37.20
2022-10-12T02:08:28.734Z,39.70
2022-10-12T02:11:04.815Z,38.97
2022-10-12T02:13:36.851Z,31.92
2022-10-12T02:16:07.093Z,35.35
2022-10-12T02:18:39.044Z,34.28
2022-10-12T02:21:08.036Z,37.78
2022-10-12T02:23:37.075Z,35.60
2022-10-12T02:26:05.672Z,37.88
2022-10-12T02:28:36.697Z,37.40
2022-10-12T02:31:22.334Z,38.45
2022-10-12T02:34:01.141Z,35.13
2022-10-12T02:36:46.808Z,34.75
2022-10-12T02:39:20.629Z,36.50
2022-10-12T02:41:51.422Z,37.78
2022-10-12T02:46:52.432Z,34.78
2022-10-12T02:49:20.884Z,33.92
2022-10-12T02:51:48.013Z,32.03
2022-10-12T02:54:15.666Z,38.95
2022-10-12T02:56:47.705Z,36.17
2022-10-12T02:59:16.954Z,35.78
2022-10-12T03:01:44.287Z,33.42
2022-10-12T03:04:11.453Z,30.15
2022-10-12T03:06:38.761Z,35.55
2022-10-12T03:09:05.936Z,31.02
2022-10-12T03:11:33.265Z,33.72
2022-10-12T03:14:00.886Z,30.33
2022-10-12T03:16:27.864Z,30.90
2022-10-12T03:18:57.857Z,37.00
2022-10-12T03:21:24.778Z,36.67
2022-10-12T03:23:51.901Z,33.53
2022-10-12T03:26:18.919Z,33.00
2022-10-12T03:28:47.448Z,36.17
2022-10-12T03:31:14.599Z,36.70
2022-10-12T03:33:41.630Z,33.00
2022-10-12T03:36:10.064Z,36.58
2022-10-12T03:38:37.084Z,33.90
2022-10-12T03:41:06.689Z,41.15
2022-10-12T03:43:34.761Z,38.63
2022-10-12T03:46:01.730Z,33.92
2022-10-12T03:48:28.655Z,38.08
2022-10-12T03:50:55.899Z,43.00
2022-10-12T03:53:22.787Z,41.85
2022-10-12T03:55:50.143Z,46.17
2022-10-12T03:58:17.126Z,37.85
2022-10-12T04:00:44.025Z,41.80
2022-10-12T04:03:11.196Z,43.20
2022-10-12T04:05:38.177Z,39.42
2022-10-12T04:08:05.410Z,37.35
2022-10-12T04:10:32.354Z,36.95
2022-10-12T04:12:59.324Z,34.63
2022-10-12T04:15:26.464Z,38.63
2022-10-12T04:17:53.746Z,39.97
2022-10-12T04:20:20.790Z,38.05
2022-10-12T04:22:47.707Z,43.70
2022-10-12T04:25:14.734Z,46.25
2022-10-12T04:27:42.043Z,42.72
2022-10-12T04:30:09.754Z,41.22
2022-10-12T04:32:36.732Z,49.13
2022-10-12T04:35:03.846Z,43.28
2022-10-12T04:37:30.799Z,42.97
2022-10-12T04:39:57.754Z,57.45
2022-10-12T04:42:24.773Z,48.95
2022-10-12T04:44:51.887Z,49.28
2022-10-12T04:47:18.889Z,44.47
2022-10-12T04:49:46.105Z,34.05
2022-10-12T04:52:13.404Z,41.50
2022-10-12T04:54:40.646Z,49.30
2022-10-12T04:57:07.622Z,49.05
2022-10-12T04:59:34.539Z,58.65
2022-10-12T05:02:01.482Z,56.83
2022-10-12T05:04:28.447Z,67.43
2022-10-12T05:06:55.721Z,59.38
2022-10-12T05:09:22.809Z,57.78
2022-10-12T05:11:49.779Z,60.28
2022-10-12T05:14:16.818Z,63.33
2022-10-12T05:16:43.747Z,62.85
2022-10-12T05:19:10.827Z,68.50
2022-10-12T05:21:39.767Z,65.43
2022-10-12T05:24:07.667Z,59.10
2022-10-12T05:26:35.059Z,68.07
2022-10-12T05:29:02.167Z,66.35
2022-10-12T05:31:29.220Z,68.72
2022-10-12T05:33:56.174Z,57.67
2022-10-12T05:36:23.168Z,58.85
2022-10-12T05:38:50.222Z,63.03
2022-10-12T05:41:17.270Z,59.53
2022-10-12T05:43:44.249Z,63.65
2022-10-12T05:46:14.516Z,58.85
2022-10-12T05:48:44.454Z,55.45
2022-10-12T05:51:11.399Z,57.15
2022-10-12T05:53:38.234Z,58.60
2022-10-12T05:56:05.480Z,44.47
2022-10-12T05:58:32.606Z,50.33
2022-10-12T06:01:11.571Z,44.38
2022-10-12T06:03:38.853Z,44.28
2022-10-12T06:06:07.297Z,50.17
2022-10-12T06:08:35.009Z,51.72
2022-10-12T06:11:02.699Z,48.47
2022-10-12T06:13:29.796Z,44.92
2022-10-12T06:15:56.965Z,44.00
2022-10-12T06:18:24.133Z,43.58
2022-10-12T06:21:21.049Z,38.03
2022-10-12T06:23:40.984Z,40.22
2022-10-12T06:26:07.875Z,33.67
2022-10-12T06:28:34.967Z,38.05
2022-10-12T06:31:02.135Z,32.03
2022-10-12T06:33:29.589Z,34.03
2022-10-12T06:35:56.966Z,30.42
2022-10-12T06:38:24.687Z,40.85
2022-10-12T06:40:54.179Z,35.90
2022-10-12T06:43:23.155Z,33.53
2022-10-12T06:45:50.454Z,39.60
2022-10-12T06:48:19.014Z,39.88
2022-10-12T06:50:47.458Z,42.45
2022-10-12T06:53:14.571Z,40.53
2022-10-12T06:55:41.646Z,42.20
2022-10-12T06:58:08.671Z,41.08
2022-10-12T07:00:35.779Z,46.80
2022-10-12T07:03:03.213Z,43.78
2022-10-12T07:05:30.338Z,41.28
2022-10-12T07:07:57.515Z,33.88
2022-10-12T07:10:25.494Z,35.60
2022-10-12T07:12:52.643Z,43.80
2022-10-12T07:15:20.051Z,49.28
2022-10-12T07:17:47.266Z,42.63
2022-10-12T07:20:14.261Z,40.33
2022-10-12T07:22:41.349Z,35.72
2022-10-12T07:25:09.256Z,43.60
2022-10-12T07:27:36.851Z,40.88
2022-10-12T07:30:04.412Z,37.65
2022-10-12T07:32:31.391Z,35.05
2022-10-12T07:34:58.362Z,32.05
2022-10-12T07:37:25.592Z,33.08
2022-10-12T07:39:57.695Z,34.20
2022-10-12T07:42:25.702Z,34.42
2022-10-12T07:44:52.883Z,30.20
2022-10-12T07:47:22.572Z,35.15
2022-10-12T07:49:49.568Z,35.53
2022-10-12T07:52:16.507Z,33.67
2022-10-12T07:54:43.692Z,30.65
2022-10-12T07:57:10.631Z,32.67
2022-10-12T07:59:37.534Z,28.75
2022-10-12T08:02:04.741Z,25.00
2022-10-12T08:04:31.934Z,30.90
2022-10-12T08:06:59.873Z,26.60
2022-10-12T08:09:27.009Z,28.10
2022-10-12T08:11:54.174Z,30.92
2022-10-12T08:14:21.392Z,29.30
2022-10-12T08:16:49.284Z,30.02
2022-10-12T08:19:16.226Z,21.73
2022-10-12T08:21:43.340Z,22.60
2022-10-12T08:24:13.116Z,23.92
2022-10-12T08:26:40.339Z,24.02
2022-10-12T08:29:08.580Z,24.13
2022-10-12T08:31:36.533Z,21.55
2022-10-12T08:34:04.242Z,20.27
2022-10-12T08:36:31.325Z,22.13
2022-10-12T08:38:58.843Z,19.73
2022-10-12T08:41:50.692Z,26.05
2022-10-12T08:44:29.916Z,22.02
2022-10-12T08:47:06.108Z,17.92
2022-10-12T08:49:33.986Z,18.52
2022-10-12T08:52:06.640Z,19.92
2022-10-12T08:54:41.805Z,19.67
2022-10-12T08:57:18.713Z,12.57
2022-10-12T08:59:46.927Z,14.77
2022-10-12T09:02:32.433Z,20.27
2022-10-12T09:05:03.271Z,17.23
2022-10-12T09:10:19.657Z,17.77
2022-10-12T09:13:12.780Z,30.60
2022-10-12T09:15:49.483Z,10.07
2022-10-12T09:18:26.906Z,15.35
2022-10-12T09:20:54.894Z,16.73
2022-10-12T09:23:27.593Z,14.77
2022-10-12T09:26:00.115Z,12.07
2022-10-12T09:28:37.951Z,15.38
2022-10-12T09:31:18.425Z,14.77
2022-10-12T09:33:52.577Z,14.45
2022-10-12T09:36:25.670Z,14.98
2022-10-12T09:38:53.205Z,13.63
2022-10-12T09:41:39.992Z,12.57
2022-10-12T09:44:08.383Z,13.75
2022-10-12T09:46:47.173Z,12.85
2022-10-12T09:49:14.376Z,13.50
2022-10-12T09:51:41.657Z,14.25
2022-10-12T09:54:18.925Z,17.35
2022-10-12T09:56:52.592Z,12.25
2022-10-12T09:59:47.449Z,11.73
2022-10-12T10:02:18.600Z,13.68
2022-10-12T10:04:47.934Z,11.07
2022-10-12T10:07:35.250Z,10.85
2022-10-12T10:10:29.799Z,10.95
2022-10-12T10:13:03.386Z,9.02
2022-10-12T10:15:36.406Z,9.90
2022-10-12T10:18:24.891Z,12.65
2022-10-12T10:20:53.845Z,10.82
2022-10-12T10:23:26.930Z,12.13
2022-10-12T10:26:04.380Z,10.32
2022-10-12T10:28:34.704Z,8.18
2022-10-12T10:31:04.681Z,11.15
2022-10-12T10:33:36.303Z,10.43
2022-10-12T10:36:12.405Z,14.18
2022-10-12T10:39:06.987Z,12.73
2022-10-12T10:41:38.812Z,13.10
2022-10-12T10:44:21.786Z,13.27
2022-10-12T10:46:49.446Z,9.43
2022-10-12T10:49:29.093Z,13.07
2022-10-12T10:51:59.711Z,10.13
2022-10-12T10:54:32.923Z,9.50
2022-10-12T10:57:11.378Z,15.02
2022-10-12T11:00:19.491Z,11.93
2022-10-12T11:02:55.267Z,8.27
2022-10-12T11:05:27.292Z,10.07
2022-10-12T11:07:56.962Z,14.23
2022-10-12T11:10:42.447Z,8.77
2022-10-12T11:13:24.627Z,15.23
2022-10-12T11:15:58.647Z,13.93
2022-10-12T11:18:34.045Z,17.33
2022-10-12T11:21:30.433Z,11.88
2022-10-12T11:24:40.897Z,14.15
2022-10-12T11:27:15.810Z,8.70
2022-10-12T11:29:43.035Z,6.97
2022-10-12T11:32:27.605Z,7.97
2022-10-12T11:35:07.239Z,8.52
2022-10-12T11:37:40.414Z,7.75
2022-10-12T11:40:19.229Z,13.77
2022-10-12T11:42:54.225Z,7.50
2022-10-12T11:45:26.642Z,6.85
2022-10-12T11:48:13.651Z,10.68
2022-10-12T11:50:45.554Z,5.68
2022-10-12T11:53:30.838Z,10.30
2022-10-12T11:56:02.105Z,8.70
2022-10-12T11:58:48.745Z,10.23
2022-10-12T12:01:35.731Z,12.32
2022-10-12T12:07:23.629Z,9.35
2022-10-12T12:09:53.012Z,7.20
2022-10-12T12:12:29.859Z,8.40
2022-10-12T12:15:05.393Z,6.20
2022-10-12T12:17:33.819Z,9.10
2022-10-12T12:20:03.512Z,12.38
2022-10-12T12:22:32.058Z,7.57
2022-10-12T12:25:11.354Z,6.10
2022-10-12T12:27:56.022Z,10.75
2022-10-12T12:30:25.085Z,11.88
2022-10-12T12:32:58.362Z,10.15
2022-10-12T12:35:27.363Z,11.82
2022-10-12T12:38:12.671Z,9.70
2022-10-12T12:40:41.805Z,8.30
2022-10-12T12:43:30.489Z,9.20
2022-10-12T12:46:10.741Z,11.43
2022-10-12T12:48:43.408Z,7.97
2022-10-12T12:51:22.430Z,8.10
2022-10-12T12:54:13.714Z,10.05
2022-10-12T12:56:51.614Z,8.57
2022-10-12T12:59:33.850Z,8.98
2022-10-12T13:02:53.660Z,10.90
2022-10-12T13:05:38.911Z,9.38
2022-10-12T13:08:20.751Z,7.78
2022-10-12T13:11:12.467Z,19.10
2022-10-12T13:13:42.218Z,10.18
2022-10-12T13:17:09.544Z,12.43
2022-10-12T13:19:16.650Z,8.57
2022-10-12T13:21:52.785Z,7.47
2022-10-12T13:24:28.795Z,11.02
2022-10-12T13:27:00.447Z,7.97
2022-10-12T13:29:37.193Z,10.73
2022-10-12T13:32:11.214Z,10.38
2022-10-12T13:34:47.739Z,11.35
2022-10-12T13:37:16.475Z,9.13
2022-10-12T13:39:47.385Z,8.80
2022-10-12T13:42:18.819Z,9.95
2022-10-12T13:44:48.528Z,9.02
2022-10-12T13:47:30.695Z,12.73
2022-10-12T13:49:58.809Z,8.75
2022-10-12T13:52:32.577Z,16.23
2022-10-12T13:55:00.787Z,15.38
2022-10-12T13:57:47.578Z,12.73
2022-10-12T14:00:14.831Z,13.20
2022-10-12T14:02:43.290Z,10.95
2022-10-12T14:05:22.161Z,11.38
2022-10-12T14:07:52.059Z,11.60
2022-10-12T14:10:29.945Z,10.73
2022-10-12T14:12:58.115Z,37.33
2022-10-12T14:15:28.281Z,133.93
2022-10-12T14:17:55.501Z,53.88
2022-10-12T14:20:36.233Z,42.78
2022-10-12T14:23:11.013Z,32.47
2022-10-12T14:25:39.471Z,29.33
2022-10-12T14:28:07.450Z,33.03
2022-10-12T14:30:39.557Z,26.23
2022-10-12T14:33:13.479Z,23.00
2022-10-12T14:35:43.993Z,24.02
2022-10-12T14:38:35.314Z,18.80
2022-10-12T14:41:43.209Z,30.00
2022-10-12T14:44:11.118Z,17.95
2022-10-12T14:46:51.313Z,23.08
2022-10-12T14:49:21.461Z,25.40
2022-10-12T14:51:51.949Z,24.67
2022-10-12T14:54:19.056Z,15.75
2022-10-12T14:56:46.057Z,24.25
2022-10-12T14:59:13.118Z,21.73
2022-10-12T15:01:42.116Z,20.88
2022-10-12T15:04:13.710Z,22.58
2022-10-12T15:06:41.890Z,19.85
2022-10-12T15:09:08.802Z,17.40
2022-10-12T15:11:35.852Z,18.15
2022-10-12T15:14:02.869Z,10.05
2022-10-12T15:16:30.117Z,11.85
2022-10-12T15:18:57.032Z,14.35
2022-10-12T15:21:24.120Z,15.38
2022-10-12T15:23:51.091Z,15.10
2022-10-12T15:26:19.047Z,15.05
2022-10-12T15:28:46.199Z,18.15
2022-10-12T15:31:18.287Z,17.38
2022-10-12T15:33:46.415Z,19.67
2022-10-12T15:36:14.035Z,20.52
2022-10-12T15:38:41.061Z,16.48
2022-10-12T15:41:17.028Z,23.65
2022-10-12T15:43:44.015Z,26.52
2022-10-12T15:46:12.618Z,25.52
2022-10-12T15:48:40.599Z,25.92
2022-10-12T15:51:20.889Z,21.17
2022-10-12T15:53:47.959Z,20.08
2022-10-12T15:56:16.538Z,23.08
2022-10-12T15:58:44.662Z,26.60
2022-10-12T16:01:20.824Z,30.88
2022-10-12T16:03:48.884Z,25.27
2022-10-12T16:06:16.479Z,44.90
2022-10-12T16:08:43.635Z,152.48
2022-10-12T16:11:14.402Z,119.43
2022-10-12T16:13:47.948Z,181.70
2022-10-12T16:16:19.184Z,172.15
2022-10-12T16:18:46.540Z,152.95
2022-10-12T16:21:13.599Z,184.00
2022-10-12T16:23:41.350Z,122.53
2022-10-12T16:26:12.537Z,134.43
2022-10-12T16:28:39.687Z,133.35
2022-10-12T16:31:12.730Z,125.82
2022-10-12T16:33:41.227Z,112.68
2022-10-12T16:36:15.637Z,90.45
2022-10-12T16:38:45.141Z,104.25
2022-10-12T16:41:14.339Z,107.82
2022-10-12T16:43:41.976Z,102.13
2022-10-12T16:46:09.679Z,98.80
2022-10-12T16:48:37.282Z,75.35
2022-10-12T16:51:11.410Z,87.05
2022-10-12T16:53:38.791Z,69.18
2022-10-12T16:56:05.946Z,79.00
2022-10-12T16:58:33.414Z,70.63
2022-10-12T17:01:10.747Z,68.28
2022-10-12T17:03:37.782Z,66.25
2022-10-12T17:06:05.023Z,70.30
2022-10-12T17:08:35.110Z,78.28
2022-10-12T17:11:10.408Z,144.43
2022-10-12T17:13:39.112Z,162.75
2022-10-12T17:16:26.469Z,168.40
2022-10-12T17:18:59.268Z,162.77
2022-10-12T17:21:26.927Z,140.85
2022-10-12T17:23:59.660Z,147.35
2022-10-12T17:26:27.010Z,124.85
2022-10-12T17:28:56.106Z,135.25
2022-10-12T17:31:23.226Z,124.88
2022-10-12T17:33:50.414Z,148.90
2022-10-12T17:36:18.014Z,153.48
2022-10-12T17:38:45.201Z,148.63
2022-10-12T17:41:12.215Z,132.60
2022-10-12T17:43:39.339Z,148.50
2022-10-12T17:46:06.795Z,140.48
2022-10-12T17:48:34.433Z,91.18
2022-10-12T17:51:10.280Z,107.45
2022-10-12T17:53:37.659Z,94.15
2022-10-12T17:56:06.860Z,127.45
2022-10-12T17:58:34.830Z,117.95
2022-10-12T18:01:07.186Z,123.72
2022-10-12T18:03:34.394Z,134.32
2022-10-12T18:06:13.097Z,92.82
2022-10-12T18:08:40.166Z,76.57
2022-10-12T18:11:07.595Z,86.80
2022-10-12T18:13:36.262Z,76.72
2022-10-12T18:16:08.208Z,90.70
2022-10-12T18:18:35.171Z,93.10
2022-10-12T18:21:06.711Z,113.28
2022-10-12T18:23:33.732Z,86.35
2022-10-12T18:26:08.542Z,85.13
2022-10-12T18:28:36.513Z,85.25
2022-10-12T18:31:04.882Z,88.32
2022-10-12T18:33:32.974Z,80.88
2022-10-12T18:36:07.450Z,89.30
2022-10-12T18:38:34.682Z,80.53
2022-10-12T18:41:07.597Z,82.07
2022-10-12T18:43:35.171Z,90.97
2022-10-12T18:46:09.724Z,82.47
2022-10-12T18:48:36.972Z,78.57
2022-10-12T18:51:09.450Z,68.82
2022-10-12T18:53:36.566Z,72.03
2022-10-12T18:56:04.956Z,68.13
2022-10-12T18:58:32.266Z,71.45
2022-10-12T19:00:59.838Z,90.15
2022-10-12T19:03:27.315Z,75.20
2022-10-12T19:06:03.780Z,81.10
2022-10-12T19:08:31.609Z,76.78
2022-10-12T19:10:58.554Z,79.25
2022-10-12T19:13:26.034Z,88.68
2022-10-12T19:15:53.210Z,91.90
2022-10-12T19:18:20.189Z,93.05
2022-10-12T19:20:47.300Z,91.53
2022-10-12T19:23:14.338Z,96.78
2022-10-12T19:25:41.306Z,82.35
2022-10-12T19:28:08.280Z,97.55
2022-10-12T19:30:38.949Z,94.25
2022-10-12T19:33:05.924Z,98.43
2022-10-12T19:35:37.381Z,96.15
2022-10-12T19:38:05.548Z,96.60
2022-10-12T19:40:34.903Z,99.50
2022-10-12T19:43:02.077Z,86.60
2022-10-12T19:45:29.186Z,98.43
2022-10-12T19:47:56.214Z,105.13
2022-10-12T19:50:23.126Z,94.20
2022-10-12T19:52:50.077Z,87.32
2022-10-12T19:55:19.933Z,96.07
2022-10-12T19:57:49.406Z,107.75
2022-10-12T20:00:17.283Z,106.78
2022-10-12T20:02:44.775Z,100.80
2022-10-12T20:05:12.473Z,104.90
2022-10-12T20:07:39.407Z,107.38
2022-10-12T20:10:07.650Z,117.43
2022-10-12T20:12:34.909Z,110.35
2022-10-12T20:15:01.834Z,137.05
2022-10-12T20:17:29.179Z,179.05
2022-10-12T20:19:57.168Z,191.15
2022-10-12T20:22:24.470Z,249.85
2022-10-12T20:24:51.555Z,245.85
2022-10-12T20:27:18.485Z,212.02
2022-10-12T20:29:45.471Z,213.32
2022-10-12T20:32:12.392Z,203.35
2022-10-12T20:34:39.358Z,203.95
2022-10-12T20:37:06.237Z,189.68
2022-10-12T20:39:34.602Z,191.82
2022-10-12T20:42:01.564Z,175.65
2022-10-12T20:44:28.708Z,182.02
2022-10-12T20:46:55.890Z,165.02
2022-10-12T20:49:23.011Z,163.20
2022-10-12T20:51:50.021Z,167.45
2022-10-12T20:54:19.039Z,176.57
2022-10-12T20:56:49.753Z,158.82
2022-10-12T20:59:16.713Z,165.93
2022-10-12T21:01:43.707Z,147.25
2022-10-12T21:04:10.842Z,149.50
2022-10-12T21:06:38.684Z,145.77
2022-10-12T21:09:06.546Z,150.90
2022-10-12T21:11:33.890Z,161.85
2022-10-12T21:14:01.176Z,167.95
2022-10-12T21:16:28.146Z,174.70
2022-10-12T21:18:56.215Z,177.23
2022-10-12T21:21:24.460Z,172.30
2022-10-12T21:23:57.720Z,214.57
2022-10-12T21:26:27.378Z,249.70
2022-10-12T21:28:55.703Z,209.18
2022-10-12T21:31:23.878Z,219.55
2022-10-12T21:33:53.132Z,190.20
2022-10-12T21:36:25.583Z,190.35
2022-10-12T21:38:53.027Z,187.40
2022-10-12T21:41:25.144Z,186.75
2022-10-12T21:43:53.098Z,192.77
2022-10-12T21:46:26.107Z,196.85
2022-10-12T21:48:53.727Z,194.50
2022-10-12T21:51:22.379Z,176.45
2022-10-12T21:53:49.812Z,189.15
2022-10-12T21:56:23.056Z,184.82
2022-10-12T21:58:51.599Z,174.68
2022-10-12T22:01:21.294Z,169.45
2022-10-12T22:03:50.006Z,152.73
2022-10-12T22:06:19.164Z,162.20
2022-10-12T22:08:51.302Z,161.30
2022-10-12T22:11:18.481Z,163.98
2022-10-12T22:13:45.559Z,159.50
2022-10-12T22:16:14.902Z,165.48
2022-10-12T22:18:42.248Z,160.30
2022-10-12T22:21:12.761Z,145.70
2022-10-12T22:23:40.456Z,155.43
2022-10-12T22:26:11.394Z,160.13
2022-10-12T22:28:38.357Z,163.23
2022-10-12T22:31:09.865Z,160.65
2022-10-12T22:33:38.119Z,158.55
2022-10-12T22:36:07.004Z,163.20
2022-10-12T22:38:35.424Z,160.10
2022-10-12T22:41:05.814Z,165.23
2022-10-12T22:43:34.061Z,171.73
2022-10-12T22:46:01.585Z,168.10
2022-10-12T22:48:28.811Z,152.48
2022-10-12T22:50:56.478Z,152.00
2022-10-12T22:53:25.446Z,151.63
2022-10-12T22:56:05.050Z,140.75
2022-10-12T22:58:32.739Z,140.10
2022-10-12T23:01:05.823Z,148.45
2022-10-12T23:03:35.313Z,140.27
2022-10-12T23:06:02.704Z,142.63
2022-10-12T23:08:30.149Z,149.60
2022-10-12T23:11:05.800Z,145.05
2022-10-12T23:13:34.419Z,146.95
2022-10-12T23:16:06.920Z,150.30
2022-10-12T23:18:34.683Z,139.23
2022-10-12T23:21:06.293Z,132.52
2022-10-12T23:23:35.103Z,138.88
2022-10-12T23:26:07.736Z,135.35
2022-10-12T23:28:35.226Z,133.77
2022-10-12T23:31:07.715Z,137.73
2022-10-12T23:33:35.039Z,141.07
2022-10-12T23:36:05.327Z,120.00
2022-10-12T23:38:34.264Z,137.63
2022-10-12T23:41:02.038Z,136.05
2022-10-12T23:43:29.191Z,136.95
2022-10-12T23:45:56.525Z,148.55
2022-10-12T23:48:24.475Z,163.90
2022-10-12T23:50:52.365Z,172.82
2022-10-12T23:53:23.763Z,189.05
2022-10-12T23:55:51.985Z,183.80
2022-10-12T23:58:19.571Z,210.85
